Time;durP1;ratioP1;P1;durP2;ratioP2;P2;SDS_P1;SDS_P2;PMS_P1;PMS_P2;Temp;Humidity;BMP_temperature;BMP_pressure;BME280_temperature;BME280_humidity;BME280_pressure;Samples;Min_cycle;Max_cycle;Signal;HPM_P1;HPM_P2
2022/07/26 00:02:12;;;;;;;0.90;0.50;;;26.20;43.40;;;;;;2320235;54;21001;-74
2022/07/26 00:04:42;;;;;;;1.25;0.57;;;26.30;43.30;;;;;;2474988;53;20960;-74
2022/07/26 00:07:09;;;;;;;1.70;0.60;;;26.30;43.40;;;;;;2408748;53;20925;-74
2022/07/26 00:09:35;;;;;;;1.25;0.50;;;26.30;43.40;;;;;;2332857;53;20999;-74
2022/07/26 00:12:02;;;;;;;1.73;0.73;;;26.30;43.40;;;;;;2571585;53;21347;-74
2022/07/26 00:14:28;;;;;;;2.08;0.80;;;26.30;43.40;;;;;;2331863;54;20976;-75
2022/07/26 00:16:55;;;;;;;2.10;0.75;;;26.30;43.50;;;;;;2425953;53;21145;-76
2022/07/26 00:19:21;;;;;;;1.52;0.90;;;26.30;43.80;;;;;;2315335;54;20984;-73
2022/07/26 00:22:32;;;;;;;3.65;0.70;;;26.30;44.10;;;;;;2486056;53;22039;-74
2022/07/26 00:24:58;;;;;;;2.30;0.80;;;26.40;44.20;;;;;;2342054;54;21548;-74
2022/07/26 00:27:25;;;;;;;1.52;0.60;;;26.40;44.10;;;;;;2342915;54;21430;-74
2022/07/26 00:29:52;;;;;;;1.62;0.50;;;26.40;44.00;;;;;;2320823;54;20948;-74
2022/07/26 00:32:19;;;;;;;3.22;0.68;;;26.40;44.10;;;;;;2342177;54;21020;-75
2022/07/26 00:34:46;;;;;;;1.98;0.75;;;26.30;44.10;;;;;;2341548;54;20954;-74
2022/07/26 00:37:12;;;;;;;1.62;0.70;;;26.40;44.30;;;;;;2391339;53;20945;-76
2022/07/26 00:39:42;;;;;;;2.78;0.75;;;26.40;44.30;;;;;;2495349;53;21786;-75
2022/07/26 00:42:09;;;;;;;2.58;0.70;;;26.40;44.50;;;;;;2341873;54;21505;-75
2022/07/26 00:44:39;;;;;;;1.98;0.70;;;26.40;44.60;;;;;;2341721;54;21004;-75
2022/07/26 00:47:08;;;;;;;1.37;0.60;;;26.40;44.70;;;;;;2342078;54;20965;-75
2022/07/26 00:49:34;;;;;;;2.17;0.85;;;26.40;44.70;;;;;;2341704;54;21036;-74
2022/07/26 00:52:01;;;;;;;1.20;0.47;;;26.40;44.70;;;;;;2341478;54;21453;-75
2022/07/26 00:54:27;;;;;;;1.00;0.40;;;26.40;44.80;;;;;;2341266;54;21012;-77
2022/07/26 00:56:54;;;;;;;1.12;0.55;;;26.30;44.70;;;;;;2340675;54;21058;-74
2022/07/26 00:59:21;;;;;;;1.40;0.50;;;26.30;44.80;;;;;;2573662;53;20909;-73
2022/07/26 01:01:47;;;;;;;1.40;0.60;;;26.30;44.90;;;;;;2329096;54;21037;-77
2022/07/26 01:04:13;;;;;;;1.73;0.70;;;26.30;44.90;;;;;;2326702;54;21393;-74
2022/07/26 01:06:42;;;;;;;0.98;0.43;;;26.30;44.90;;;;;;2323750;54;20969;-74
2022/07/26 01:09:11;;;;;;;1.02;0.40;;;26.30;45.10;;;;;;2587326;53;21394;-74
2022/07/26 01:11:40;;;;;;;1.10;0.50;;;26.30;45.00;;;;;;2559962;53;20932;-74
2022/07/26 01:14:06;;;;;;;1.25;0.50;;;26.30;45.00;;;;;;2341316;54;20949;-78
2022/07/26 01:16:33;;;;;;;1.05;0.47;;;26.30;45.00;;;;;;2341524;54;20985;-74
2022/07/26 01:19:00;;;;;;;1.12;0.50;;;26.30;45.00;;;;;;2341619;54;21012;-74
2022/07/26 01:21:28;;;;;;;0.90;0.50;;;26.30;45.10;;;;;;2341196;54;21462;-73
2022/07/26 01:23:55;;;;;;;1.85;0.70;;;26.30;45.10;;;;;;2428511;53;21001;-74
2022/07/26 01:26:21;;;;;;;1.60;0.73;;;26.30;45.10;;;;;;2319261;54;20913;-76
2022/07/26 01:28:50;;;;;;;1.10;0.50;;;26.30;45.30;;;;;;2399087;53;21465;-76
2022/07/26 01:31:17;;;;;;;1.08;0.50;;;26.30;45.30;;;;;;2343470;54;20925;-75
2022/07/26 01:33:43;;;;;;;1.45;0.50;;;26.30;45.40;;;;;;2342133;54;20920;-78
2022/07/26 01:36:13;;;;;;;0.88;0.40;;;26.30;45.40;;;;;;2341745;54;20985;-74
2022/07/26 01:38:40;;;;;;;1.42;0.50;;;26.30;45.70;;;;;;2342191;54;20963;-74
2022/07/26 01:41:07;;;;;;;1.58;0.50;;;26.30;45.60;;;;;;2341731;54;20933;-77
2022/07/26 01:43:33;;;;;;;1.35;0.50;;;26.30;45.70;;;;;;2337158;54;21908;-74
2022/07/26 01:46:00;;;;;;;2.03;0.70;;;26.30;45.70;;;;;;2320393;53;20971;-76
2022/07/26 01:48:26;;;;;;;1.80;0.60;;;26.30;45.70;;;;;;2339851;54;20924;-74
2022/07/26 01:50:53;;;;;;;2.25;0.62;;;26.30;45.70;;;;;;2342001;54;21016;-74
2022/07/26 01:53:22;;;;;;;1.52;0.60;;;26.30;45.80;;;;;;2341768;54;20952;-74
2022/07/26 01:55:50;;;;;;;1.55;0.57;;;26.30;46.00;;;;;;2309867;54;21614;-74
2022/07/26 01:58:18;;;;;;;1.00;0.45;;;26.30;46.00;;;;;;2306468;54;20954;-77
2022/07/26 02:00:44;;;;;;;1.23;0.45;;;26.30;46.00;;;;;;2309562;54;20998;-74
2022/07/26 02:03:11;;;;;;;1.48;0.60;;;26.30;46.00;;;;;;2327652;53;20935;-74
2022/07/26 02:05:38;;;;;;;2.28;0.60;;;26.30;46.00;;;;;;2330468;53;21004;-76
2022/07/26 02:08:04;;;;;;;1.05;0.50;;;26.30;46.00;;;;;;2312739;54;21028;-74
2022/07/26 02:13:16;;;;;;;1.12;0.40;;;26.30;45.90;;;;;;2312769;55;21031;-75
2022/07/26 02:15:43;;;;;;;2.20;0.70;;;26.30;45.90;;;;;;2314361;54;21317;-74
2022/07/26 02:18:09;;;;;;;1.52;0.73;;;26.30;46.00;;;;;;2316900;54;21049;-74
2022/07/26 02:20:36;;;;;;;1.92;0.80;;;26.30;46.10;;;;;;2302652;54;20982;-74
2022/07/26 02:23:02;;;;;;;1.50;0.70;;;26.30;46.20;;;;;;2314315;54;21448;-75
2022/07/26 02:25:29;;;;;;;2.17;0.73;;;26.20;46.20;;;;;;2413943;53;21956;-74
2022/07/26 02:27:55;;;;;;;1.55;0.65;;;26.20;46.30;;;;;;2305036;55;20911;-74
2022/07/26 02:30:25;;;;;;;1.58;0.60;;;26.20;46.30;;;;;;2317883;54;20973;-75
2022/07/26 02:32:51;;;;;;;2.10;0.70;;;26.20;46.40;;;;;;2314457;54;21432;-77
2022/07/26 02:35:18;;;;;;;1.67;0.50;;;26.20;46.40;;;;;;2314138;54;20955;-74
2022/07/26 02:37:44;;;;;;;1.98;0.60;;;26.20;46.50;;;;;;2314640;54;21082;-74
2022/07/26 02:40:11;;;;;;;1.60;0.60;;;26.20;46.50;;;;;;2317691;54;21036;-74
2022/07/26 02:42:39;;;;;;;1.52;0.52;;;26.20;46.40;;;;;;2317922;54;20993;-74
2022/07/26 02:45:07;;;;;;;1.33;0.62;;;26.20;46.50;;;;;;2314499;54;21019;-78
2022/07/26 02:47:33;;;;;;;1.37;0.50;;;26.20;46.60;;;;;;2321634;54;21539;-75
2022/07/26 02:50:00;;;;;;;1.12;0.50;;;26.20;46.50;;;;;;2561170;53;21590;-75
2022/07/26 02:52:26;;;;;;;1.58;0.70;;;26.20;46.50;;;;;;2322138;54;21011;-74
2022/07/26 02:54:53;;;;;;;0.85;0.45;;;26.20;46.60;;;;;;2314572;54;21299;-74
2022/07/26 02:57:19;;;;;;;1.35;0.52;;;26.20;46.50;;;;;;2318750;54;21125;-76
2022/07/26 02:59:46;;;;;;;1.10;0.50;;;26.20;46.50;;;;;;2317275;54;21280;-74
2022/07/26 03:02:13;;;;;;;1.62;0.60;;;26.20;46.40;;;;;;2299972;54;20940;-74
2022/07/26 03:04:39;;;;;;;1.45;0.57;;;26.20;46.30;;;;;;2336526;53;20914;-75
2022/07/26 03:07:06;;;;;;;1.95;0.80;;;26.10;46.30;;;;;;2320101;54;21035;-74
2022/07/26 03:09:32;;;;;;;1.73;0.60;;;26.10;46.30;;;;;;2521805;53;20920;-76
2022/07/26 03:11:59;;;;;;;1.55;0.60;;;26.00;46.30;;;;;;2530580;53;20932;-74
2022/07/26 03:14:26;;;;;;;1.17;0.57;;;26.00;46.40;;;;;;2314157;55;20991;-74
2022/07/26 03:16:52;;;;;;;2.03;0.62;;;26.00;46.40;;;;;;2308375;55;21535;-74
2022/07/26 03:19:18;;;;;;;1.65;0.55;;;25.90;46.30;;;;;;2365214;52;20940;-75
2022/07/26 03:21:45;;;;;;;1.45;0.60;;;25.90;46.30;;;;;;2313817;54;20978;-74
2022/07/26 03:24:12;;;;;;;1.92;0.70;;;25.80;46.20;;;;;;2309065;54;21032;-74
2022/07/26 03:26:38;;;;;;;1.70;0.60;;;25.80;46.30;;;;;;2554165;53;20964;-77
2022/07/26 03:29:04;;;;;;;0.93;0.40;;;25.70;46.90;;;;;;2312175;54;21825;-74
2022/07/26 03:31:31;;;;;;;2.53;0.80;;;25.70;47.00;;;;;;2314302;54;20921;-75
2022/07/26 03:33:57;;;;;;;1.27;0.50;;;25.60;46.30;;;;;;2309909;54;20978;-73
2022/07/26 03:36:27;;;;;;;1.23;0.60;;;25.60;46.40;;;;;;2318050;54;20940;-74
2022/07/26 03:38:53;;;;;;;1.27;0.60;;;25.50;46.40;;;;;;2312327;54;20927;-74
2022/07/26 03:41:19;;;;;;;1.33;0.55;;;25.40;46.40;;;;;;2389922;53;20984;-75
2022/07/26 03:43:46;;;;;;;1.60;0.65;;;25.40;46.60;;;;;;2333724;55;20944;-74
2022/07/26 03:46:12;;;;;;;1.08;0.50;;;25.40;46.70;;;;;;2327814;54;21019;-74
2022/07/26 03:48:39;;;;;;;0.90;0.50;;;25.30;46.70;;;;;;2337237;54;21028;-74
2022/07/26 03:51:06;;;;;;;1.17;0.50;;;25.30;46.70;;;;;;2325824;54;22076;-77
2022/07/26 03:53:33;;;;;;;1.05;0.45;;;25.20;46.80;;;;;;2341376;54;21731;-75
2022/07/26 03:58:44;;;;;;;1.17;0.47;;;25.20;46.90;;;;;;2376142;53;20944;-73
2022/07/26 04:01:11;;;;;;;1.12;0.47;;;25.20;46.90;;;;;;2340492;54;20941;-74
2022/07/26 04:03:37;;;;;;;1.48;0.50;;;25.10;46.90;;;;;;2342670;54;20940;-73
2022/07/26 04:06:03;;;;;;;2.15;0.75;;;25.10;46.90;;;;;;2342818;54;20958;-74
2022/07/26 04:08:30;;;;;;;2.15;0.62;;;25.00;46.90;;;;;;2341780;54;20933;-74
2022/07/26 04:10:56;;;;;;;4.00;0.50;;;25.00;46.90;;;;;;2524148;53;21473;-74
2022/07/26 04:13:23;;;;;;;1.60;0.60;;;25.00;47.00;;;;;;2316323;54;21461;-75
2022/07/26 04:15:49;;;;;;;1.60;0.60;;;24.90;47.00;;;;;;2460709;53;21887;-75
2022/07/26 04:18:17;;;;;;;1.12;0.50;;;24.80;47.00;;;;;;2359599;53;21004;-74
2022/07/26 04:20:43;;;;;;;1.45;0.60;;;24.80;47.00;;;;;;2326947;54;21154;-74
2022/07/26 04:23:10;;;;;;;1.42;0.60;;;24.80;47.10;;;;;;2318516;54;20995;-74
2022/07/26 04:25:36;;;;;;;1.40;0.70;;;24.70;47.10;;;;;;2342149;54;20945;-74
2022/07/26 04:28:03;;;;;;;2.08;0.65;;;24.70;47.20;;;;;;2326973;54;20977;-76
2022/07/26 04:30:29;;;;;;;2.25;0.90;;;24.60;47.20;;;;;;2319131;53;20965;-74
2022/07/26 04:32:56;;;;;;;1.92;0.60;;;24.60;47.40;;;;;;2313722;54;21053;-74
2022/07/26 04:35:22;;;;;;;1.70;0.70;;;24.50;47.50;;;;;;2320299;54;20950;-74
2022/07/26 04:37:48;;;;;;;2.40;0.80;;;24.50;47.60;;;;;;2310470;54;20986;-74
2022/07/26 04:40:17;;;;;;;1.17;0.50;;;24.50;47.70;;;;;;2416581;53;20932;-74
2022/07/26 04:42:43;;;;;;;1.17;0.62;;;24.40;47.70;;;;;;2324630;54;21347;-73
2022/07/26 04:45:12;;;;;;;3.08;1.05;;;24.40;47.80;;;;;;2328638;54;20956;-74
2022/07/26 04:47:42;;;;;;;1.37;0.50;;;24.40;47.90;;;;;;2319912;54;22001;-75
2022/07/26 04:50:12;;;;;;;1.52;0.60;;;24.30;47.90;;;;;;2298311;55;20963;-74
2022/07/26 04:52:39;;;;;;;1.70;0.62;;;24.30;47.90;;;;;;2337375;54;20965;-74
2022/07/26 04:55:06;;;;;;;1.20;0.60;;;24.30;48.00;;;;;;2319858;54;20953;-74
2022/07/26 04:57:32;;;;;;;1.27;0.60;;;24.30;48.10;;;;;;2387719;54;21609;-73
2022/07/26 04:59:59;;;;;;;1.67;0.60;;;24.30;48.20;;;;;;2563085;53;20988;-75
2022/07/26 05:02:42;;;;;;;1.90;0.60;;;24.30;48.40;;;;;;2314393;53;20967;-73
2022/07/26 05:05:09;;;;;;;4.32;0.80;;;24.30;49.20;;;;;;2314920;54;21608;-73
2022/07/26 05:07:42;;;;;;;1.35;0.60;;;24.30;48.60;;;;;;2311714;54;21390;-74
2022/07/26 05:10:09;;;;;;;1.52;0.60;;;24.20;48.70;;;;;;2314777;54;20908;-73
2022/07/26 05:12:35;;;;;;;1.60;0.60;;;24.20;48.60;;;;;;2313715;54;20939;-74
2022/07/26 05:15:01;;;;;;;5.50;1.10;;;24.20;48.70;;;;;;2315041;54;21463;-74
2022/07/26 05:17:29;;;;;;;1.70;0.65;;;24.20;48.80;;;;;;2314207;54;20946;-74
2022/07/26 05:19:55;;;;;;;1.35;0.57;;;24.20;48.70;;;;;;2326224;54;21351;-74
2022/07/26 05:22:23;;;;;;;1.73;0.62;;;24.20;48.80;;;;;;2316118;54;20952;-73
2022/07/26 05:24:50;;;;;;;3.20;0.73;;;24.30;48.80;;;;;;2558847;53;20979;-73
2022/07/26 05:27:16;;;;;;;2.70;0.73;;;24.30;48.90;;;;;;2321669;54;20973;-73
2022/07/26 05:33:22;;;;;;;2.72;0.70;;;24.30;48.90;;;;;;2439078;52;21573;-74
2022/07/26 05:35:49;;;;;;;1.52;0.68;;;24.30;48.70;;;;;;2313501;55;20983;-74
2022/07/26 05:38:15;;;;;;;2.30;0.70;;;24.30;48.70;;;;;;2302412;53;21004;-74
2022/07/26 05:40:42;;;;;;;0.73;0.35;;;24.30;48.60;;;;;;2368727;54;21034;-73
2022/07/26 05:43:11;;;;;;;1.37;0.40;;;24.30;48.60;;;;;;2487830;53;20963;-73
2022/07/26 05:45:37;;;;;;;2.20;0.60;;;24.30;48.60;;;;;;2314653;53;20987;-73
2022/07/26 05:48:05;;;;;;;1.48;0.47;;;24.30;48.50;;;;;;2430362;53;21805;-73
2022/07/26 05:50:31;;;;;;;2.55;0.90;;;24.30;48.60;;;;;;2314779;53;20945;-74
2022/07/26 05:52:59;;;;;;;1.27;0.50;;;24.30;48.60;;;;;;2555516;53;20905;-73
2022/07/26 05:55:25;;;;;;;1.37;0.60;;;24.30;48.60;;;;;;2500289;53;20932;-73
2022/07/26 05:57:52;;;;;;;1.55;0.57;;;24.30;48.60;;;;;;2420933;54;20947;-73
2022/07/26 06:00:19;;;;;;;3.35;1.00;;;24.30;48.60;;;;;;2339698;54;20964;-74
2022/07/26 06:02:45;;;;;;;1.12;0.50;;;24.30;48.60;;;;;;2377495;53;21416;-73
2022/07/26 06:05:14;;;;;;;1.35;0.50;;;24.30;48.50;;;;;;2314132;54;21012;-72
2022/07/26 06:07:40;;;;;;;2.03;0.70;;;24.30;48.50;;;;;;2379070;53;21067;-73
2022/07/26 06:10:08;;;;;;;2.00;0.70;;;24.30;48.40;;;;;;2485698;53;20967;-73
2022/07/26 06:12:34;;;;;;;1.48;0.50;;;24.30;48.40;;;;;;2312247;53;20927;-72
2022/07/26 06:15:01;;;;;;;1.58;0.50;;;24.30;48.40;;;;;;2334821;54;20953;-73
2022/07/26 06:17:28;;;;;;;2.45;0.60;;;24.30;48.40;;;;;;2325354;54;20941;-74
2022/07/26 06:19:56;;;;;;;1.70;0.50;;;24.30;48.40;;;;;;2440869;53;20994;-76
2022/07/26 06:22:24;;;;;;;2.65;0.47;;;24.30;48.30;;;;;;2403673;53;20988;-71
2022/07/26 06:24:51;;;;;;;0.62;0.40;;;24.40;48.40;;;;;;2341847;54;20933;-74
2022/07/26 06:27:18;;;;;;;1.62;0.60;;;24.40;48.40;;;;;;2537325;53;21076;-73
2022/07/26 06:29:47;;;;;;;1.42;0.70;;;24.40;48.40;;;;;;2559456;53;21773;-76
2022/07/26 06:35:37;;;;;;;2.33;0.50;;;24.40;48.60;;;;;;2507231;53;21004;-74
2022/07/26 06:38:05;;;;;;;0.95;0.43;;;24.40;48.30;;;;;;2559892;53;21013;-73
2022/07/26 06:43:44;;;;;;;2.92;0.98;;;24.50;48.50;;;;;;2320093;54;21746;-73
2022/07/26 06:46:11;;;;;;;3.37;0.65;;;24.50;48.30;;;;;;2339732;54;21064;-74
2022/07/26 06:48:37;;;;;;;2.03;0.60;;;24.50;48.40;;;;;;2341549;54;20908;-73
2022/07/26 06:51:04;;;;;;;1.60;0.60;;;24.60;48.40;;;;;;2342097;54;22355;-73
2022/07/26 06:53:30;;;;;;;0.85;0.40;;;24.60;48.40;;;;;;2341991;54;20932;-77
2022/07/26 06:56:13;;;;;;;1.08;0.45;;;24.60;48.30;;;;;;2588763;53;21877;-74
2022/07/26 06:58:49;;;;;;;1.77;0.57;;;24.60;48.20;;;;;;2341367;54;20947;-73
2022/07/26 07:02:07;;;;;;;1.20;0.50;;;24.60;48.20;;;;;;2314952;54;20958;-73
2022/07/26 07:04:34;;;;;;;1.45;0.43;;;24.70;48.50;;;;;;2310563;54;21027;-73
2022/07/26 07:07:02;;;;;;;1.42;0.50;;;24.70;48.10;;;;;;2314155;54;20940;-74
2022/07/26 07:09:28;;;;;;;0.93;0.45;;;24.70;47.90;;;;;;2351022;53;20949;-74
2022/07/26 07:11:55;;;;;;;1.83;0.40;;;24.80;47.80;;;;;;2315093;54;20956;-73
2022/07/26 07:14:26;;;;;;;1.80;0.50;;;24.80;47.80;;;;;;2312959;54;21064;-74
2022/07/26 07:16:54;;;;;;;2.33;0.60;;;24.80;47.70;;;;;;2314044;54;21489;-75
2022/07/26 07:19:20;;;;;;;1.12;0.50;;;24.80;47.60;;;;;;2312309;54;20952;-74
2022/07/26 07:24:51;;;;;;;2.97;0.50;;;24.90;47.40;;;;;;2504927;53;21490;-75
2022/07/26 07:27:17;;;;;;;1.10;0.40;;;24.90;47.40;;;;;;2372991;53;21441;-76
2022/07/26 07:29:44;;;;;;;1.60;0.47;;;25.00;47.50;;;;;;2417104;54;20978;-74
2022/07/26 07:32:13;;;;;;;1.70;0.50;;;25.00;47.40;;;;;;2522421;53;22227;-74
2022/07/26 07:34:57;;;;;;;;;;;25.00;47.50;;;;;;2318558;53;21054;-74
2022/07/26 07:37:23;;;;;;;2.65;0.40;;;25.10;47.40;;;;;;2445793;53;20130;-74
2022/07/26 07:39:59;;;;;;;1.70;0.60;;;25.20;47.40;;;;;;2558133;53;20931;-74
2022/07/26 07:42:25;;;;;;;1.62;0.43;;;25.20;47.40;;;;;;2308847;53;21833;-75
2022/07/26 07:44:58;;;;;;;1.75;0.68;;;25.20;47.30;;;;;;2354824;53;21432;-74
2022/07/26 07:47:25;;;;;;;2.55;0.50;;;25.30;47.30;;;;;;2318207;53;20963;-73
2022/07/26 07:49:54;;;;;;;1.25;0.43;;;25.30;47.80;;;;;;2548216;53;21405;-76
2022/07/26 07:52:36;;;;;;;2.22;0.60;;;25.40;47.20;;;;;;2355749;54;21018;-74
2022/07/26 07:55:05;;;;;;;5.82;1.37;;;25.40;47.20;;;;;;2313902;53;21412;-74
2022/07/26 07:57:46;;;;;;;2.78;0.80;;;25.50;47.10;;;;;;2315365;53;20979;-76
2022/07/26 08:00:15;;;;;;;1.40;0.40;;;25.60;47.10;;;;;;2318061;53;21070;-74
2022/07/26 08:03:18;;;;;;;1.00;0.40;;;25.60;47.00;;;;;;2549777;53;20942;-74
2022/07/26 08:05:45;;;;;;;1.35;0.50;;;25.70;46.70;;;;;;2354751;53;20923;-73
2022/07/26 08:08:12;;;;;;;1.37;0.43;;;25.70;46.60;;;;;;2314596;53;20960;-74
2022/07/26 08:10:38;;;;;;;1.83;0.50;;;25.70;46.40;;;;;;2314341;53;20975;-76
2022/07/26 08:13:05;;;;;;;2.20;0.50;;;25.80;46.50;;;;;;2324446;53;21510;-74
2022/07/26 08:15:33;;;;;;;2.05;0.43;;;25.80;46.40;;;;;;2436846;53;20948;-74
2022/07/26 08:17:59;;;;;;;1.98;0.37;;;25.90;46.50;;;;;;2518437;53;20985;-72
2022/07/26 08:20:26;;;;;;;1.70;0.50;;;25.90;46.50;;;;;;2316845;54;20943;-73
2022/07/26 08:22:52;;;;;;;1.30;0.40;;;25.90;46.30;;;;;;2322163;54;20941;-74
2022/07/26 08:25:20;;;;;;;1.85;0.60;;;26.00;46.20;;;;;;2559259;53;20923;-73
2022/07/26 08:27:58;;;;;;;2.40;0.60;;;26.10;46.30;;;;;;2316876;53;20927;-74
2022/07/26 08:30:33;;;;;;;1.35;0.40;;;26.10;46.00;;;;;;2314668;53;21203;-75
2022/07/26 08:32:59;;;;;;;0.93;0.40;;;26.10;45.90;;;;;;2314412;54;20923;-74
2022/07/26 08:35:28;;;;;;;1.15;0.52;;;26.20;46.00;;;;;;2313191;54;21018;-74
2022/07/26 08:37:55;;;;;;;1.85;0.55;;;26.20;45.80;;;;;;2301215;54;20998;-76
2022/07/26 08:40:21;;;;;;;1.23;0.47;;;26.30;45.70;;;;;;2335962;55;20928;-74
2022/07/26 08:43:10;;;;;;;1.95;0.50;;;26.30;45.60;;;;;;2336026;55;20944;-73
2022/07/26 08:45:36;;;;;;;1.20;0.40;;;26.30;45.30;;;;;;2334784;55;20956;-75
2022/07/26 08:48:02;;;;;;;1.55;0.45;;;26.40;45.40;;;;;;2314191;54;21578;-76
2022/07/26 08:50:49;;;;;;;1.37;0.50;;;26.40;45.20;;;;;;2341343;53;20953;-73
2022/07/26 08:53:15;;;;;;;1.35;0.50;;;26.50;44.90;;;;;;2317373;54;20987;-73
2022/07/26 08:55:42;;;;;;;1.40;0.50;;;26.40;44.80;;;;;;2326072;54;21891;-74
2022/07/26 08:58:46;;;;;;;1.85;0.65;;;26.50;45.00;;;;;;2341671;54;21000;-74
2022/07/26 09:02:05;;;;;;;2.08;0.40;;;26.50;44.90;;;;;;2341524;54;20977;-73
2022/07/26 09:04:43;;;;;;;1.60;0.50;;;26.60;44.70;;;;;;2587163;53;21001;-74
2022/07/26 09:07:17;;;;;;;1.52;0.40;;;26.60;44.70;;;;;;2367576;53;21410;-74
2022/07/26 09:14:49;;;;;;;2.50;0.50;;;26.60;44.50;;;;;;2321058;54;20948;-73
2022/07/26 09:17:17;;;;;;;1.45;0.30;;;26.70;44.20;;;;;;2411013;53;21024;-73
2022/07/26 09:19:43;;;;;;;2.00;0.55;;;26.70;44.40;;;;;;2527573;53;21459;-74
2022/07/26 09:22:12;;;;;;;1.90;0.40;;;26.70;44.50;;;;;;2320345;54;21488;-74
2022/07/26 09:24:44;;;;;;;1.62;0.40;;;26.70;44.50;;;;;;2341299;54;21052;-73
2022/07/26 09:27:14;;;;;;;1.80;0.40;;;26.80;44.50;;;;;;2369315;53;21068;-74
2022/07/26 09:29:51;;;;;;;1.60;0.50;;;26.80;44.20;;;;;;2341183;54;21283;-73
2022/07/26 09:36:37;;;;;;;0.90;0.40;;;26.90;43.90;;;;;;2329106;54;20988;-74
2022/07/26 09:39:03;;;;;;;3.28;0.85;;;27.00;43.80;;;;;;2329452;54;20956;-73
2022/07/26 09:41:44;;;;;;;1.35;0.45;;;27.00;43.80;;;;;;2321319;54;21596;-76
2022/07/26 09:44:24;;;;;;;2.35;0.62;;;27.00;43.50;;;;;;2341942;54;21017;-74
2022/07/26 09:46:57;;;;;;;2.37;0.62;;;27.10;43.40;;;;;;2333393;54;20996;-73
2022/07/26 09:49:25;;;;;;;7.10;1.25;;;27.10;43.30;;;;;;2334214;53;20945;-73
2022/07/26 09:51:53;;;;;;;4.30;0.60;;;27.10;43.50;;;;;;2341354;54;21000;-73
2022/07/26 09:54:34;;;;;;;1.60;0.50;;;27.10;43.40;;;;;;2340376;54;20981;-72
2022/07/26 09:57:00;;;;;;;0.88;0.30;;;27.20;43.30;;;;;;2341599;54;20936;-74
2022/07/26 09:59:27;;;;;;;2.70;0.50;;;27.30;43.50;;;;;;2368413;53;20941;-73
2022/07/26 10:01:54;;;;;;;1.45;0.57;;;27.30;43.30;;;;;;2341345;54;20909;-74
2022/07/26 10:04:21;;;;;;;0.68;0.37;;;27.30;43.30;;;;;;2320743;54;20978;-76
2022/07/26 10:06:50;;;;;;;1.15;0.35;;;27.40;43.50;;;;;;2451664;53;21045;-73
2022/07/26 10:09:22;;;;;;;1.92;0.60;;;27.50;43.60;;;;;;2324239;54;21044;-75
2022/07/26 10:11:58;;;;;;;3.73;0.50;;;27.60;43.60;;;;;;2341171;54;21552;-74
2022/07/26 10:14:39;;;;;;;2.10;0.32;;;27.70;43.30;;;;;;2338458;54;20985;-74
2022/07/26 10:17:57;;;;;;;0.90;0.25;;;27.70;42.90;;;;;;2341023;54;21007;-74
2022/07/26 10:23:00;;;;;;;1.83;0.32;;;27.80;42.60;;;;;;2339914;54;20969;-74
2022/07/26 10:25:48;;;;;;;1.33;0.45;;;27.90;42.50;;;;;;2340808;54;20905;-73
2022/07/26 10:28:25;;;;;;;0.85;0.30;;;28.00;42.10;;;;;;2320289;54;20942;-74
2022/07/26 10:31:38;;;;;;;1.92;0.40;;;28.00;42.00;;;;;;2335698;54;20949;-74
2022/07/26 10:34:04;;;;;;;1.85;0.35;;;28.00;42.90;;;;;;2341976;54;21837;-75
2022/07/26 10:36:38;;;;;;;1.52;0.50;;;28.10;42.50;;;;;;2341263;54;20957;-75
2022/07/26 10:39:08;;;;;;;1.95;0.50;;;28.10;42.40;;;;;;2341035;54;20968;-73
2022/07/26 10:41:43;;;;;;;1.62;0.43;;;28.20;42.40;;;;;;2341410;54;20988;-73
2022/07/26 10:44:21;;;;;;;1.37;0.25;;;28.30;42.20;;;;;;2341840;54;21003;-74
2022/07/26 10:47:37;;;;;;;1.05;0.35;;;28.30;41.80;;;;;;2307578;55;21064;-74
2022/07/26 10:50:04;;;;;;;2.42;0.40;;;28.40;41.40;;;;;;2553614;53;21271;-75
2022/07/26 10:59:49;;;;;;;1.17;0.40;;;28.40;40.80;;;;;;2519238;54;21057;-72
2022/07/26 11:02:34;;;;;;;1.17;0.45;;;28.50;41.20;;;;;;2364178;53;20947;-74
2022/07/26 11:05:02;;;;;;;1.02;0.43;;;28.50;41.20;;;;;;2396848;53;21830;-74
2022/07/26 11:07:30;;;;;;;1.23;0.40;;;28.50;41.20;;;;;;2333922;54;21067;-76
2022/07/26 11:09:59;;;;;;;1.70;0.50;;;28.50;41.10;;;;;;2338175;54;20982;-74
2022/07/26 11:12:29;;;;;;;1.20;0.47;;;28.50;41.20;;;;;;2337217;54;21106;-75
2022/07/26 11:18:38;;;;;;;1.00;0.30;;;28.60;40.90;;;;;;2340949;54;20944;-73
2022/07/26 11:21:12;;;;;;;1.90;0.60;;;28.60;40.90;;;;;;2341686;54;20937;-75
2022/07/26 11:23:54;;;;;;;1.60;0.60;;;28.70;40.40;;;;;;2472970;52;20972;-76
2022/07/26 11:26:24;;;;;;;0.88;0.30;;;28.70;40.30;;;;;;2341862;54;20981;-74
2022/07/26 11:28:58;;;;;;;1.37;0.47;;;28.70;40.20;;;;;;2340100;54;20931;-75
2022/07/26 11:31:48;;;;;;;1.40;0.50;;;28.80;39.80;;;;;;2425085;53;20993;-74
2022/07/26 11:35:00;;;;;;;0.85;0.37;;;28.80;39.50;;;;;;2452866;52;20944;-75
2022/07/26 11:37:27;;;;;;;1.20;0.50;;;28.80;39.30;;;;;;2345397;54;20949;-74
2022/07/26 11:39:56;;;;;;;1.52;0.50;;;28.70;39.40;;;;;;2448455;52;21017;-75
2022/07/26 11:42:22;;;;;;;1.30;0.43;;;28.70;39.20;;;;;;2336450;53;21868;-74
2022/07/26 11:44:52;;;;;;;1.73;0.60;;;28.70;39.20;;;;;;2341814;54;21051;-74
2022/07/26 11:47:21;;;;;;;1.60;0.50;;;28.70;39.10;;;;;;2335262;54;20936;-74
2022/07/26 11:49:47;;;;;;;0.80;0.30;;;28.60;39.00;;;;;;2331413;54;20951;-75
2022/07/26 11:52:14;;;;;;;2.67;0.30;;;28.60;39.10;;;;;;2342093;54;21687;-74
2022/07/26 11:54:51;;;;;;;1.60;0.45;;;28.60;39.30;;;;;;2339916;57;21056;-74
2022/07/26 11:57:18;;;;;;;1.05;0.32;;;28.70;38.80;;;;;;2329469;54;21569;-75
2022/07/26 11:59:46;;;;;;;1.75;0.40;;;28.70;39.20;;;;;;2345122;53;20980;-74
2022/07/26 12:02:13;;;;;;;2.53;1.10;;;28.70;39.10;;;;;;2483205;53;20921;-74
2022/07/26 12:04:40;;;;;;;2.15;0.90;;;28.70;39.00;;;;;;2341709;54;20925;-74
2022/07/26 12:07:14;;;;;;;1.98;0.70;;;28.70;39.00;;;;;;2341428;54;20925;-77
2022/07/26 12:09:46;;;;;;;3.30;0.47;;;28.80;38.70;;;;;;2399918;52;20952;-74
2022/07/26 12:12:29;;;;;;;2.00;0.57;;;28.80;38.90;;;;;;2341594;54;20948;-74
2022/07/26 12:15:06;;;;;;;1.37;0.50;;;28.80;39.20;;;;;;2340199;54;20940;-74
2022/07/26 12:17:35;;;;;;;2.53;0.60;;;28.90;39.20;;;;;;2339779;53;20936;-74
2022/07/26 12:20:16;;;;;;;1.92;0.47;;;28.90;39.10;;;;;;2339213;53;20963;-74
2022/07/26 12:22:57;;;;;;;2.08;0.47;;;29.00;38.30;;;;;;2342509;54;21443;-74
2022/07/26 12:25:26;;;;;;;1.12;0.40;;;29.10;38.50;;;;;;2341310;54;20936;-74
2022/07/26 12:27:53;;;;;;;0.50;0.25;;;29.10;38.60;;;;;;2371289;53;20952;-74
2022/07/26 12:30:20;;;;;;;0.80;0.30;;;29.10;38.50;;;;;;2588242;52;21004;-74
2022/07/26 12:33:06;;;;;;;;;;;;;;;;;;;;;
2022/07/26 12:35:34;;;;;;;0.32;0.20;;;29.10;38.40;;;;;;2342001;54;21632;-74
2022/07/26 12:38:00;;;;;;;2.55;0.50;;;29.20;38.30;;;;;;2342450;54;20945;-76
2022/07/26 12:40:28;;;;;;;0.70;0.30;;;29.20;38.30;;;;;;2341941;54;20929;-74
2022/07/26 12:42:58;;;;;;;1.25;0.43;;;29.30;38.20;;;;;;2339605;54;20952;-74
2022/07/26 12:45:34;;;;;;;1.00;0.40;;;29.30;38.10;;;;;;2341110;54;21639;-74
2022/07/26 12:48:01;;;;;;;1.10;0.43;;;29.40;37.70;;;;;;2342639;54;20932;-76
2022/07/26 12:50:32;;;;;;;0.90;0.35;;;29.40;37.70;;;;;;2342283;54;21056;-74
2022/07/26 12:53:06;;;;;;;0.95;0.32;;;29.50;37.50;;;;;;2342195;54;21644;-74
2022/07/26 12:55:33;;;;;;;0.80;0.30;;;29.50;37.40;;;;;;2337083;53;21019;-74
2022/07/26 12:57:59;;;;;;;1.15;0.52;;;29.50;37.30;;;;;;2341646;54;20988;-75
2022/07/26 13:00:28;;;;;;;1.80;0.30;;;29.50;37.20;;;;;;2339770;54;21011;-74
2022/07/26 13:02:55;;;;;;;1.33;0.50;;;29.60;37.30;;;;;;2340555;54;20945;-76
2022/07/26 13:05:22;;;;;;;0.98;0.30;;;29.60;37.20;;;;;;2342155;54;20992;-73
2022/07/26 13:07:50;;;;;;;1.75;0.50;;;29.60;37.00;;;;;;2341968;54;21055;-73
2022/07/26 13:10:17;;;;;;;1.17;0.43;;;29.60;36.90;;;;;;2341996;54;21509;-74
2022/07/26 13:13:00;;;;;;;1.80;0.40;;;29.60;36.90;;;;;;2577193;53;21457;-74
2022/07/26 13:15:27;;;;;;;1.25;0.37;;;29.60;36.80;;;;;;2342079;54;20988;-74
2022/07/26 13:17:53;;;;;;;1.12;0.40;;;29.60;36.80;;;;;;2337794;53;21425;-74
2022/07/26 13:20:20;;;;;;;1.17;0.50;;;29.70;37.10;;;;;;2341786;53;20949;-74
2022/07/26 13:22:46;;;;;;;1.20;0.47;;;29.70;37.40;;;;;;2342002;54;20988;-72
2022/07/26 13:25:13;;;;;;;1.37;0.52;;;29.70;37.30;;;;;;2414927;52;20949;-72
2022/07/26 13:27:39;;;;;;;1.42;0.47;;;29.70;37.00;;;;;;2477065;52;20988;-72
2022/07/26 13:30:11;;;;;;;1.25;0.45;;;29.80;36.90;;;;;;2579257;52;21020;-71
2022/07/26 13:32:37;;;;;;;1.87;0.68;;;29.80;36.70;;;;;;2341895;54;21449;-71
2022/07/26 13:35:04;;;;;;;0.98;0.47;;;29.80;36.50;;;;;;2342292;54;21405;-72
2022/07/26 13:37:31;;;;;;;1.48;0.50;;;29.90;36.60;;;;;;2435435;52;21416;-72
2022/07/26 13:39:58;;;;;;;1.08;0.40;;;29.90;36.50;;;;;;2340065;57;21040;-72
2022/07/26 13:42:25;;;;;;;1.58;0.50;;;29.90;36.40;;;;;;2290040;57;3091017;-71
2022/07/26 13:44:54;;;;;;;1.37;0.43;;;29.90;36.00;;;;;;2328790;54;20979;-76